createdAt,value
2022-08-02T00:00:12.848Z,99.90
2022-08-02T00:02:40.223Z,99.90
2022-08-02T00:05:07.491Z,99.90
2022-08-02T00:07:39.132Z,99.90
2022-08-02T00:10:09.056Z,99.90
2022-08-02T00:12:35.944Z,99.90
2022-08-02T00:15:03.043Z,99.90
2022-08-02T00:17:29.952Z,99.90
2022-08-02T00:19:56.759Z,99.90
2022-08-02T00:22:23.583Z,99.90
2022-08-02T00:24:50.392Z,99.90
2022-08-02T00:27:17.215Z,99.90
2022-08-02T00:29:53.117Z,99.90
2022-08-02T00:32:22.710Z,99.90
2022-08-02T00:34:49.821Z,99.90
2022-08-02T00:37:16.665Z,99.90
2022-08-02T00:39:43.814Z,99.90
2022-08-02T00:42:11.163Z,99.90
2022-08-02T00:44:38.233Z,99.90
2022-08-02T00:47:05.237Z,99.90
2022-08-02T00:49:32.837Z,99.90
2022-08-02T00:52:00.357Z,99.90
2022-08-02T00:54:27.200Z,99.90
2022-08-02T00:56:54.065Z,99.90
2022-08-02T00:59:20.896Z,99.90
2022-08-02T01:01:55.839Z,99.90
2022-08-02T01:04:30.303Z,99.90
2022-08-02T01:07:11.761Z,99.90
2022-08-02T01:09:43.347Z,99.90
2022-08-02T01:12:10.878Z,99.90
2022-08-02T01:14:38.317Z,99.90
2022-08-02T01:17:27.821Z,99.90
2022-08-02T01:20:18.216Z,99.90
2022-08-02T01:23:10.205Z,99.90
2022-08-02T01:29:57.630Z,99.90
2022-08-02T01:32:28.203Z,99.90
2022-08-02T01:34:59.964Z,99.90
2022-08-02T01:37:40.281Z,99.90
2022-08-02T01:40:11.584Z,99.90
2022-08-02T01:42:42.661Z,99.90
2022-08-02T01:45:10.505Z,99.90
2022-08-02T01:47:37.350Z,99.90
2022-08-02T01:50:04.778Z,99.90
2022-08-02T01:52:33.703Z,99.90
2022-08-02T01:55:16.311Z,99.90
2022-08-02T01:57:49.751Z,99.90
2022-08-02T02:00:34.885Z,99.90
2022-08-02T02:03:01.774Z,99.90
2022-08-02T02:05:29.919Z,99.90
2022-08-02T02:07:58.577Z,99.90
2022-08-02T02:10:27.963Z,99.90
2022-08-02T02:12:55.143Z,99.90
2022-08-02T02:15:22.064Z,99.90
2022-08-02T02:18:11.401Z,99.90
2022-08-02T02:20:37.038Z,99.90
2022-08-02T02:23:03.915Z,99.90
2022-08-02T02:25:36.393Z,99.90
2022-08-02T02:28:14.291Z,99.90
2022-08-02T02:30:43.402Z,99.90
2022-08-02T02:33:10.502Z,99.90
2022-08-02T02:35:37.552Z,99.90
2022-08-02T02:38:06.254Z,99.90
2022-08-02T02:40:33.293Z,99.90
2022-08-02T02:43:00.697Z,99.90
2022-08-02T02:45:28.087Z,99.90
2022-08-02T02:47:55.235Z,99.90
2022-08-02T02:50:22.494Z,99.90
2022-08-02T02:52:49.341Z,99.90
2022-08-02T02:55:16.613Z,99.90
2022-08-02T02:57:43.782Z,99.90
2022-08-02T03:00:12.517Z,99.90
2022-08-02T03:02:40.067Z,99.90
2022-08-02T03:05:07.720Z,99.90
2022-08-02T03:07:34.926Z,99.90
2022-08-02T03:10:03.183Z,99.90
2022-08-02T03:12:32.204Z,99.90
2022-08-02T03:15:00.770Z,99.90
2022-08-02T03:17:38.241Z,99.90
2022-08-02T03:20:09.276Z,99.90
2022-08-02T03:22:36.594Z,99.90
2022-08-02T03:25:03.594Z,99.90
2022-08-02T03:27:30.587Z,99.90
2022-08-02T03:29:57.376Z,99.90
2022-08-02T03:32:24.421Z,99.90
2022-08-02T03:34:51.553Z,99.90
2022-08-02T03:37:18.391Z,99.90
2022-08-02T03:39:52.630Z,99.90
2022-08-02T03:42:21.196Z,99.90
2022-08-02T03:44:49.010Z,99.90
2022-08-02T03:47:15.898Z,99.90
2022-08-02T03:49:42.922Z,99.90
2022-08-02T03:52:10.024Z,99.90
2022-08-02T03:54:45.720Z,99.90
2022-08-02T03:57:13.277Z,99.90
2022-08-02T03:59:44.541Z,99.90
2022-08-02T04:02:12.151Z,99.90
2022-08-02T04:04:41.863Z,99.90
2022-08-02T04:07:08.678Z,99.90
2022-08-02T04:09:35.551Z,99.90
2022-08-02T04:12:02.461Z,99.90
2022-08-02T04:14:30.516Z,99.90
2022-08-02T04:17:04.584Z,99.90
2022-08-02T04:19:50.829Z,99.90
2022-08-02T04:22:24.458Z,99.90
2022-08-02T04:24:52.154Z,99.90
2022-08-02T04:27:51.278Z,99.90
2022-08-02T04:30:06.784Z,99.90
2022-08-02T04:32:33.818Z,99.90
2022-08-02T04:38:09.469Z,99.90
2022-08-02T04:40:34.930Z,99.90
2022-08-02T04:43:01.786Z,99.90
2022-08-02T04:45:28.682Z,99.90
2022-08-02T04:48:04.597Z,99.90
2022-08-02T04:50:32.530Z,99.90
2022-08-02T04:52:59.447Z,99.90
2022-08-02T04:55:29.124Z,99.90
2022-08-02T04:57:57.813Z,99.90
2022-08-02T05:00:25.688Z,99.90
2022-08-02T05:02:52.726Z,99.90
2022-08-02T05:05:19.662Z,99.90
2022-08-02T05:07:46.649Z,99.90
2022-08-02T05:10:13.598Z,99.90
2022-08-02T05:12:40.626Z,99.90
2022-08-02T05:15:12.531Z,99.90
2022-08-02T05:17:47.983Z,99.90
2022-08-02T05:20:16.438Z,99.90
2022-08-02T05:22:43.382Z,99.90
2022-08-02T05:25:10.538Z,99.90
2022-08-02T05:27:37.440Z,99.90
2022-08-02T05:30:05.299Z,99.90
2022-08-02T05:32:32.238Z,99.90
2022-08-02T05:35:01.844Z,99.90
2022-08-02T05:37:32.169Z,99.90
2022-08-02T05:40:00.861Z,99.90
2022-08-02T05:42:31.395Z,99.90
2022-08-02T05:44:58.519Z,99.90
2022-08-02T05:47:25.995Z,99.90
2022-08-02T05:49:53.207Z,99.90
2022-08-02T05:52:20.250Z,99.90
2022-08-02T05:54:59.573Z,99.90
2022-08-02T05:57:43.378Z,99.90
2022-08-02T06:00:12.937Z,99.90
2022-08-02T06:02:44.193Z,99.90
2022-08-02T06:05:21.037Z,99.90
2022-08-02T06:07:49.132Z,99.90
2022-08-02T06:10:20.587Z,99.90
2022-08-02T06:12:52.109Z,99.90
2022-08-02T06:15:19.558Z,99.90
2022-08-02T06:17:46.949Z,99.90
2022-08-02T06:20:15.246Z,99.90
2022-08-02T06:22:46.702Z,99.90
2022-08-02T06:25:50.452Z,99.90
2022-08-02T06:28:01.861Z,99.90
2022-08-02T06:30:28.919Z,99.90
2022-08-02T06:32:56.005Z,99.90
2022-08-02T06:35:23.316Z,99.90
2022-08-02T06:37:58.754Z,99.90
2022-08-02T06:41:01.161Z,99.90
2022-08-02T06:43:33.431Z,99.90
2022-08-02T06:46:38.055Z,99.90
2022-08-02T06:48:50.492Z,99.90
2022-08-02T06:51:17.962Z,99.90
2022-08-02T06:53:45.231Z,99.90
2022-08-02T06:56:12.179Z,99.90
2022-08-02T06:58:40.109Z,99.90
2022-08-02T07:01:07.746Z,99.90
2022-08-02T07:03:35.015Z,99.90
2022-08-02T07:06:01.916Z,99.90
2022-08-02T07:08:36.269Z,99.90
2022-08-02T07:11:03.231Z,99.90
2022-08-02T07:13:30.072Z,99.90
2022-08-02T07:15:57.082Z,99.90
2022-08-02T07:18:24.825Z,99.90
2022-08-02T07:20:51.885Z,99.90
2022-08-02T07:23:19.095Z,99.90
2022-08-02T07:26:03.078Z,99.90
2022-08-02T07:28:31.257Z,99.90
2022-08-02T07:30:58.107Z,99.90
2022-08-02T07:33:37.470Z,99.90
2022-08-02T07:36:08.843Z,99.30
2022-08-02T07:38:37.510Z,99.00
2022-08-02T07:41:04.787Z,99.10
2022-08-02T07:43:31.658Z,97.40
2022-08-02T07:46:00.769Z,95.80
2022-08-02T07:48:28.143Z,95.20
2022-08-02T07:50:54.981Z,94.70
2022-08-02T07:53:49.970Z,93.90
2022-08-02T07:56:17.514Z,92.90
2022-08-02T07:58:44.441Z,92.60
2022-08-02T08:01:11.362Z,92.00
2022-08-02T08:03:38.241Z,91.40
2022-08-02T08:06:05.166Z,91.10
2022-08-02T08:08:32.049Z,90.80
2022-08-02T08:10:58.907Z,90.10
2022-08-02T08:13:25.792Z,88.70
2022-08-02T08:15:52.774Z,88.40
2022-08-02T08:18:21.175Z,88.90
2022-08-02T08:20:48.005Z,86.90
2022-08-02T08:23:14.860Z,86.90
2022-08-02T08:25:42.269Z,86.10
2022-08-02T08:28:09.264Z,84.50
2022-08-02T08:30:36.292Z,83.30
2022-08-02T08:33:03.198Z,80.30
2022-08-02T08:35:30.038Z,80.00
2022-08-02T08:37:56.919Z,79.50
2022-08-02T08:40:24.699Z,77.80
2022-08-02T08:42:51.568Z,77.80
2022-08-02T08:45:18.434Z,75.70
2022-08-02T08:47:45.406Z,75.10
2022-08-02T08:50:21.502Z,75.60
2022-08-02T08:53:01.759Z,76.00
2022-08-02T08:55:29.118Z,75.80
2022-08-02T08:57:56.021Z,75.50
2022-08-02T09:00:22.844Z,75.50
2022-08-02T09:02:49.940Z,74.80
2022-08-02T09:05:17.165Z,74.20
2022-08-02T09:07:47.316Z,74.00
2022-08-02T09:10:44.118Z,73.80
2022-08-02T09:13:37.795Z,74.60
2022-08-02T09:16:14.075Z,75.70
2022-08-02T09:18:44.746Z,75.60
2022-08-02T09:21:12.154Z,75.20
2022-08-02T09:23:41.056Z,75.80
2022-08-02T09:26:09.962Z,75.80
2022-08-02T09:28:38.237Z,73.90
2022-08-02T09:31:15.810Z,73.10
2022-08-02T09:33:43.654Z,71.80
2022-08-02T09:36:15.110Z,70.90
2022-08-02T09:38:58.305Z,69.40
2022-08-02T09:41:29.990Z,68.30
2022-08-02T09:44:03.338Z,66.80
2022-08-02T09:46:40.061Z,66.80
2022-08-02T09:49:08.391Z,66.20
2022-08-02T09:51:40.063Z,64.30
2022-08-02T09:54:09.465Z,63.80
2022-08-02T09:56:46.379Z,63.60
2022-08-02T09:59:14.225Z,63.10
2022-08-02T10:01:42.662Z,62.70
2022-08-02T10:04:24.627Z,62.40
2022-08-02T10:06:52.261Z,62.20
2022-08-02T10:09:19.086Z,59.60
2022-08-02T10:11:45.991Z,59.40
2022-08-02T10:14:12.935Z,59.30
2022-08-02T10:16:44.028Z,58.70
2022-08-02T10:19:11.168Z,58.30
2022-08-02T10:21:58.539Z,58.30
2022-08-02T10:24:28.378Z,58.10
2022-08-02T10:26:55.637Z,57.80
2022-08-02T10:29:54.164Z,57.20
2022-08-02T10:32:36.430Z,56.20
2022-08-02T10:35:19.738Z,56.30
2022-08-02T10:37:58.272Z,56.20
2022-08-02T10:40:28.788Z,55.50
2022-08-02T10:43:00.996Z,55.60
2022-08-02T10:45:28.324Z,55.00
2022-08-02T10:48:03.742Z,54.80
2022-08-02T10:50:45.721Z,54.30
2022-08-02T10:53:25.682Z,54.70
2022-08-02T10:55:53.816Z,54.10
2022-08-02T10:58:26.281Z,53.30
2022-08-02T11:01:05.701Z,53.20
2022-08-02T11:03:33.625Z,53.30
2022-08-02T11:06:25.198Z,52.90
2022-08-02T11:09:33.459Z,53.30
2022-08-02T11:12:03.061Z,51.40
2022-08-02T11:14:29.914Z,51.30
2022-08-02T11:16:56.688Z,50.40
2022-08-02T11:19:27.140Z,50.70
2022-08-02T11:22:05.226Z,49.90
2022-08-02T11:24:35.509Z,49.40
2022-08-02T11:27:06.833Z,49.20
2022-08-02T11:29:41.284Z,48.50
2022-08-02T11:32:09.476Z,48.40
2022-08-02T11:34:38.315Z,48.70
2022-08-02T11:37:05.493Z,48.20
2022-08-02T11:39:32.340Z,47.70
2022-08-02T11:42:00.041Z,47.70
2022-08-02T11:44:28.051Z,46.90
2022-08-02T11:47:02.114Z,46.10
2022-08-02T11:49:29.273Z,46.50
2022-08-02T11:52:05.102Z,45.20
2022-08-02T11:54:35.322Z,45.00
2022-08-02T11:57:21.845Z,44.60
2022-08-02T11:59:50.732Z,43.90
2022-08-02T12:02:18.690Z,44.40
2022-08-02T12:04:57.944Z,46.10
2022-08-02T12:07:36.560Z,45.30
2022-08-02T12:10:07.638Z,44.20
2022-08-02T12:12:58.815Z,44.20
2022-08-02T12:15:41.868Z,43.80
2022-08-02T12:18:34.288Z,43.30
2022-08-02T12:21:01.336Z,42.90
2022-08-02T12:23:28.214Z,42.30
2022-08-02T12:26:16.206Z,42.20
2022-08-02T12:28:43.620Z,42.70
2022-08-02T12:31:16.031Z,42.10
2022-08-02T12:33:53.094Z,41.80
2022-08-02T12:36:26.261Z,41.50
2022-08-02T12:38:57.863Z,41.60
2022-08-02T12:41:31.371Z,41.00
2022-08-02T12:43:59.360Z,40.90
2022-08-02T12:46:26.338Z,40.70
2022-08-02T12:49:16.490Z,40.20
2022-08-02T12:51:50.747Z,39.30
2022-08-02T12:54:31.437Z,38.00
2022-08-02T12:57:10.888Z,38.70
2022-08-02T12:59:39.608Z,39.00
2022-08-02T13:02:08.207Z,39.10
2022-08-02T13:04:35.237Z,40.00
2022-08-02T13:07:02.160Z,39.90
2022-08-02T13:09:29.537Z,40.00
2022-08-02T13:11:56.436Z,39.60
2022-08-02T13:14:23.333Z,39.20
2022-08-02T13:16:50.407Z,39.10
2022-08-02T13:19:17.274Z,38.20
2022-08-02T13:22:01.263Z,37.90
2022-08-02T13:24:38.156Z,38.10
2022-08-02T13:27:08.125Z,38.00
2022-08-02T13:29:37.115Z,37.70
2022-08-02T13:32:04.136Z,37.10
2022-08-02T13:34:30.946Z,37.00
2022-08-02T13:36:57.760Z,36.10
2022-08-02T13:39:24.603Z,36.40
2022-08-02T13:41:51.662Z,37.00
2022-08-02T13:44:18.485Z,36.90
2022-08-02T13:46:46.156Z,36.70
2022-08-02T13:49:18.373Z,36.00
2022-08-02T13:51:49.830Z,35.70
2022-08-02T13:54:16.832Z,35.30
2022-08-02T13:56:43.749Z,34.30
2022-08-02T13:59:54.109Z,35.10
2022-08-02T14:01:58.699Z,34.80
2022-08-02T14:04:25.915Z,35.10
2022-08-02T14:06:52.744Z,35.20
2022-08-02T14:09:19.623Z,34.20
2022-08-02T14:11:46.701Z,33.80
2022-08-02T14:14:16.433Z,33.60
2022-08-02T14:16:46.267Z,34.00
2022-08-02T14:19:15.978Z,33.40
2022-08-02T14:21:48.386Z,33.30
2022-08-02T14:24:20.200Z,33.20
2022-08-02T14:26:47.432Z,32.90
2022-08-02T14:29:14.906Z,33.20
2022-08-02T14:31:44.649Z,33.50
2022-08-02T14:34:12.952Z,33.20
2022-08-02T14:36:39.793Z,33.00
2022-08-02T14:39:06.728Z,32.60
2022-08-02T14:42:00.122Z,32.50
2022-08-02T14:44:23.607Z,32.80
2022-08-02T14:46:52.603Z,32.70
2022-08-02T14:49:25.087Z,32.60
2022-08-02T14:51:56.593Z,32.40
2022-08-02T14:54:28.189Z,31.90
2022-08-02T14:56:59.917Z,32.00
2022-08-02T14:59:27.354Z,32.10
2022-08-02T15:01:57.306Z,32.10
2022-08-02T15:04:24.312Z,31.60
2022-08-02T15:06:51.263Z,31.20
2022-08-02T15:09:19.495Z,30.80
2022-08-02T15:11:48.240Z,30.10
2022-08-02T15:14:21.796Z,29.80
2022-08-02T15:16:58.146Z,29.30
2022-08-02T15:19:59.044Z,29.10
2022-08-02T15:22:19.342Z,29.70
2022-08-02T15:24:46.968Z,29.50
2022-08-02T15:27:14.735Z,29.40
2022-08-02T15:29:43.042Z,28.70
2022-08-02T15:32:10.500Z,28.70
2022-08-02T15:34:38.062Z,29.20
2022-08-02T15:37:04.936Z,28.70
2022-08-02T15:39:31.909Z,28.50
2022-08-02T15:41:58.761Z,28.60
2022-08-02T15:44:25.605Z,28.50
2022-08-02T15:46:53.664Z,28.10
2022-08-02T15:49:23.563Z,28.30
2022-08-02T15:51:51.465Z,28.20
2022-08-02T15:54:18.313Z,28.30
2022-08-02T15:56:45.226Z,28.50
2022-08-02T15:59:12.168Z,28.80
2022-08-02T16:01:46.664Z,28.90
2022-08-02T16:04:15.011Z,28.90
2022-08-02T16:06:41.895Z,29.10
2022-08-02T16:09:08.827Z,29.30
2022-08-02T16:11:35.686Z,28.50
2022-08-02T16:14:02.620Z,28.70
2022-08-02T16:16:34.185Z,28.70
2022-08-02T16:19:46.098Z,28.50
2022-08-02T16:21:48.768Z,28.40
2022-08-02T16:24:15.621Z,28.10
2022-08-02T16:26:43.596Z,28.30
2022-08-02T16:29:10.530Z,28.70
2022-08-02T16:31:41.982Z,28.20
2022-08-02T16:34:09.441Z,28.50
2022-08-02T16:36:36.380Z,28.40
2022-08-02T16:39:03.207Z,28.30
2022-08-02T16:41:45.553Z,29.40
2022-08-02T16:44:17.283Z,29.40
2022-08-02T16:46:45.169Z,29.10
2022-08-02T16:50:06.572Z,29.40
2022-08-02T16:51:59.158Z,28.80
2022-08-02T16:54:26.576Z,29.60
2022-08-02T16:56:53.548Z,29.70
2022-08-02T16:59:20.418Z,30.00
2022-08-02T17:02:11.005Z,30.00
2022-08-02T17:04:39.098Z,29.90
2022-08-02T17:07:11.256Z,30.30
2022-08-02T17:10:04.328Z,30.50
2022-08-02T17:12:34.170Z,30.80
2022-08-02T17:15:12.909Z,30.70
2022-08-02T17:17:48.348Z,31.10
2022-08-02T17:20:15.377Z,32.10
2022-08-02T17:22:44.300Z,33.10
2022-08-02T17:25:13.584Z,33.90
2022-08-02T17:27:43.133Z,34.90
2022-08-02T17:30:11.286Z,36.00
2022-08-02T17:32:38.221Z,36.60
2022-08-02T17:35:06.558Z,37.50
2022-08-02T17:37:41.483Z,37.90
2022-08-02T17:40:09.667Z,38.90
2022-08-02T17:42:36.674Z,38.70
2022-08-02T17:45:07.000Z,39.10
2022-08-02T17:48:04.473Z,38.70
2022-08-02T17:50:33.758Z,39.70
2022-08-02T17:53:01.158Z,40.10
2022-08-02T17:55:31.233Z,40.90
2022-08-02T17:57:59.377Z,40.60
2022-08-02T18:00:36.557Z,40.80
2022-08-02T18:03:05.422Z,40.90
2022-08-02T18:05:38.980Z,41.20
2022-08-02T18:08:06.619Z,41.20
2022-08-02T18:10:34.460Z,41.60
2022-08-02T18:13:05.418Z,41.80
2022-08-02T18:15:33.247Z,41.60
2022-08-02T18:18:00.577Z,42.10
2022-08-02T18:20:27.507Z,43.60
2022-08-02T18:25:47.004Z,47.30
2022-08-02T18:28:16.429Z,48.20
2022-08-02T18:30:43.772Z,49.10
2022-08-02T18:33:58.456Z,50.10
2022-08-02T18:35:57.750Z,50.70
2022-08-02T18:38:25.076Z,50.90
2022-08-02T18:40:54.872Z,53.10
2022-08-02T18:46:16.213Z,53.40
2022-08-02T18:48:46.437Z,55.00
2022-08-02T18:51:14.146Z,54.50
2022-08-02T18:53:42.473Z,55.10
2022-08-02T18:56:20.405Z,55.30
2022-08-02T18:58:55.082Z,56.20
2022-08-02T19:01:33.952Z,57.10
2022-08-02T19:04:03.065Z,57.90
2022-08-02T19:06:30.338Z,57.80
2022-08-02T19:09:05.430Z,58.10
2022-08-02T19:11:37.274Z,58.60
2022-08-02T19:14:04.229Z,59.10
2022-08-02T19:16:36.748Z,59.00
2022-08-02T19:19:07.860Z,59.30
2022-08-02T19:22:17.583Z,59.50
2022-08-02T19:24:21.946Z,60.20
2022-08-02T19:26:51.064Z,60.50
2022-08-02T19:29:42.329Z,61.20
2022-08-02T19:32:39.368Z,61.40
2022-08-02T19:34:53.838Z,61.80
2022-08-02T19:37:20.762Z,62.50
2022-08-02T19:39:47.727Z,63.10
2022-08-02T19:42:15.101Z,63.00
2022-08-02T19:44:45.675Z,64.40
2022-08-02T19:47:19.180Z,64.90
2022-08-02T19:49:48.918Z,65.20
2022-08-02T19:52:21.883Z,65.60
2022-08-02T19:54:54.241Z,66.30
2022-08-02T19:57:24.979Z,66.90
2022-08-02T19:59:52.781Z,66.80
2022-08-02T20:02:21.153Z,67.70
2022-08-02T20:04:50.334Z,68.40
2022-08-02T20:07:49.940Z,68.90
2022-08-02T20:10:10.849Z,70.40
2022-08-02T20:12:39.780Z,69.70
2022-08-02T20:15:18.796Z,70.00
2022-08-02T20:17:49.307Z,70.90
2022-08-02T20:20:17.001Z,73.00
2022-08-02T20:23:33.269Z,71.70
2022-08-02T20:25:53.965Z,72.70
2022-08-02T20:28:21.262Z,73.20
2022-08-02T20:30:48.902Z,73.80
2022-08-02T20:33:21.531Z,74.10
2022-08-02T20:35:49.198Z,74.70
2022-08-02T20:38:16.549Z,75.60
2022-08-02T20:40:43.895Z,74.90
2022-08-02T20:43:10.731Z,75.80
2022-08-02T20:45:37.602Z,76.20
2022-08-02T20:48:04.776Z,76.40
2022-08-02T20:50:49.164Z,77.00
2022-08-02T20:53:24.170Z,76.90
2022-08-02T20:55:53.459Z,77.90
2022-08-02T20:58:20.475Z,78.60
2022-08-02T21:00:54.064Z,79.40
2022-08-02T21:03:20.901Z,79.10
2022-08-02T21:05:55.061Z,79.60
2022-08-02T21:08:23.361Z,80.30
2022-08-02T21:10:52.551Z,80.70
2022-08-02T21:13:23.081Z,80.80
2022-08-02T21:15:51.843Z,81.90
2022-08-02T21:18:24.306Z,82.90
2022-08-02T21:21:00.220Z,83.80
2022-08-02T21:23:29.372Z,83.80
2022-08-02T21:25:58.020Z,85.50
2022-08-02T21:28:43.351Z,84.70
2022-08-02T21:31:13.545Z,85.10
2022-08-02T21:33:58.280Z,85.60
2022-08-02T21:36:31.195Z,86.30
2022-08-02T21:39:05.249Z,87.70
2022-08-02T21:41:39.837Z,88.00
2022-08-02T21:44:15.867Z,88.60
2022-08-02T21:46:49.277Z,88.60
2022-08-02T21:49:20.965Z,88.30
2022-08-02T21:52:07.467Z,88.90
2022-08-02T21:54:35.286Z,89.30
2022-08-02T21:57:06.991Z,90.50
2022-08-02T21:59:35.077Z,90.30
2022-08-02T22:02:02.058Z,90.50
2022-08-02T22:04:29.032Z,90.90
2022-08-02T22:06:56.761Z,91.10
2022-08-02T22:09:43.727Z,91.10
2022-08-02T22:12:16.832Z,91.30
2022-08-02T22:14:54.722Z,91.70
2022-08-02T22:20:23.990Z,91.80
2022-08-02T22:22:52.669Z,92.00
2022-08-02T22:25:27.251Z,92.20
2022-08-02T22:28:39.412Z,91.70
2022-08-02T22:30:56.828Z,92.00
2022-08-02T22:33:46.987Z,92.40
2022-08-02T22:36:28.025Z,93.00
2022-08-02T22:38:55.295Z,92.60
2022-08-02T22:41:22.585Z,93.00
2022-08-02T22:43:49.563Z,93.20
2022-08-02T22:46:16.824Z,93.40
2022-08-02T22:48:44.547Z,93.70
2022-08-02T22:51:13.433Z,94.10
2022-08-02T22:53:43.459Z,94.10
2022-08-02T22:56:10.443Z,94.50
2022-08-02T22:58:44.030Z,46.00
2022-08-02T22:58:45.271Z,52.40
2022-08-02T22:59:04.572Z,91.70
2022-08-02T23:01:24.479Z,94.40
2022-08-02T23:03:51.356Z,94.70
2022-08-02T23:06:22.756Z,94.70
2022-08-02T23:08:49.962Z,95.20
2022-08-02T23:11:16.874Z,95.30
2022-08-02T23:13:44.446Z,95.00
2022-08-02T23:16:29.999Z,95.10
2022-08-02T23:19:15.250Z,95.10
2022-08-02T23:22:01.030Z,95.20
2022-08-02T23:24:28.914Z,95.50
2022-08-02T23:26:55.799Z,96.00
2022-08-02T23:29:22.679Z,95.80
2022-08-02T23:31:49.536Z,95.80
2022-08-02T23:34:17.449Z,96.90
2022-08-02T23:36:44.282Z,96.20
2022-08-02T23:39:11.063Z,97.30
2022-08-02T23:41:37.958Z,97.40
2022-08-02T23:44:13.468Z,97.70
2022-08-02T23:46:44.538Z,98.00
2022-08-02T23:49:13.676Z,97.90
2022-08-02T23:51:40.568Z,97.70
2022-08-02T23:54:07.433Z,97.80
2022-08-02T23:56:34.431Z,98.30
2022-08-02T23:59:01.272Z,98.40
